sensor_id;sensor_type;location;lat;lon;timestamp;pressure;altitude;pressure_sealevel;temperature;humidity
48892;BME280;50130;52.150;5.236;2023-03-20T00:00:33;101738.0;;;10.37;90.96
48892;BME280;50130;52.150;5.236;2023-03-20T00:02:18;101732.0;;;10.38;90.64
48892;BME280;50130;52.150;5.236;2023-03-20T00:03:58;101734.0;;;10.3;90.75
48892;BME280;50130;52.150;5.236;2023-03-20T00:07:11;101734.0;;;10.27;90.53
48892;BME280;50130;52.150;5.236;2023-03-20T00:08:49;101731.0;;;10.26;91.02
48892;BME280;50130;52.150;5.236;2023-03-20T00:10:31;101743.0;;;10.25;91.36
48892;BME280;50130;52.150;5.236;2023-03-20T00:13:55;101741.0;;;10.39;90.8
48892;BME280;50130;52.150;5.236;2023-03-20T00:15:35;101744.0;;;10.43;89.62
48892;BME280;50130;52.150;5.236;2023-03-20T00:17:14;101737.0;;;10.29;89.99
48892;BME280;50130;52.150;5.236;2023-03-20T00:18:53;101732.0;;;10.28;90.66
48892;BME280;50130;52.150;5.236;2023-03-20T00:22:07;101734.0;;;10.33;89.66
48892;BME280;50130;52.150;5.236;2023-03-20T00:23:44;101728.0;;;10.29;88.85
48892;BME280;50130;52.150;5.236;2023-03-20T00:25:22;101725.0;;;10.27;88.18
48892;BME280;50130;52.150;5.236;2023-03-20T00:27:00;101728.0;;;10.31;87.92
48892;BME280;50130;52.150;5.236;2023-03-20T00:30:20;101722.0;;;10.24;88.13
48892;BME280;50130;52.150;5.236;2023-03-20T00:31:58;101718.0;;;10.34;86.53
48892;BME280;50130;52.150;5.236;2023-03-20T00:33:34;101716.0;;;10.37;86.29
48892;BME280;50130;52.150;5.236;2023-03-20T00:36:59;101721.0;;;10.52;85.54
48892;BME280;50130;52.150;5.236;2023-03-20T00:38:35;101720.0;;;10.41;86.05
48892;BME280;50130;52.150;5.236;2023-03-20T00:40:12;101726.0;;;10.4;85.54
48892;BME280;50130;52.150;5.236;2023-03-20T00:41:50;101734.0;;;10.33;86.88
48892;BME280;50130;52.150;5.236;2023-03-20T00:45:07;101735.0;;;10.42;86.74
48892;BME280;50130;52.150;5.236;2023-03-20T00:46:51;101738.0;;;10.49;85.83
48892;BME280;50130;52.150;5.236;2023-03-20T00:48:29;101737.0;;;10.38;86.6
48892;BME280;50130;52.150;5.236;2023-03-20T00:50:12;101748.0;;;10.24;87.4
48892;BME280;50130;52.150;5.236;2023-03-20T00:53:27;101755.0;;;10.28;87.43
48892;BME280;50130;52.150;5.236;2023-03-20T00:55:04;101762.0;;;10.3;86.59
48892;BME280;50130;52.150;5.236;2023-03-20T00:56:42;101764.0;;;10.21;86.69
48892;BME280;50130;52.150;5.236;2023-03-20T00:58:20;101777.0;;;10.15;86.87
48892;BME280;50130;52.150;5.236;2023-03-20T01:01:37;101780.0;;;10.31;84.41
48892;BME280;50130;52.150;5.236;2023-03-20T01:03:15;101780.0;;;10.28;83.5
48892;BME280;50130;52.150;5.236;2023-03-20T01:04:54;101772.0;;;10.3;83.87
48892;BME280;50130;52.150;5.236;2023-03-20T01:08:17;101765.0;;;10.45;83.29
48892;BME280;50130;52.150;5.236;2023-03-20T01:09:54;101753.0;;;10.25;83.67
48892;BME280;50130;52.150;5.236;2023-03-20T01:11:31;101749.0;;;10.37;83.34
48892;BME280;50130;52.150;5.236;2023-03-20T01:13:16;101750.0;;;10.45;83.11
48892;BME280;50130;52.150;5.236;2023-03-20T01:16:32;101750.0;;;10.56;82.81
48892;BME280;50130;52.150;5.236;2023-03-20T01:19:48;101773.0;;;10.41;83.8
48892;BME280;50130;52.150;5.236;2023-03-20T01:21:25;101773.0;;;10.42;83.23
48892;BME280;50130;52.150;5.236;2023-03-20T01:24:39;101764.0;;;10.4;83.92
48892;BME280;50130;52.150;5.236;2023-03-20T01:26:20;101764.0;;;10.41;83.19
48892;BME280;50130;52.150;5.236;2023-03-20T01:27:59;101765.0;;;10.42;83.45
48892;BME280;50130;52.150;5.236;2023-03-20T01:31:14;101765.0;;;10.41;83.51
48892;BME280;50130;52.150;5.236;2023-03-20T01:32:53;101764.0;;;10.37;83.28
48892;BME280;50130;52.150;5.236;2023-03-20T01:34:30;101762.0;;;10.36;84.1
48892;BME280;50130;52.150;5.236;2023-03-20T01:36:08;101767.0;;;10.28;83.2
48892;BME280;50130;52.150;5.236;2023-03-20T01:39:29;101771.0;;;10.32;83.26
48892;BME280;50130;52.150;5.236;2023-03-20T01:41:11;101770.0;;;10.24;83.12
48892;BME280;50130;52.150;5.236;2023-03-20T01:42:48;101763.0;;;10.19;83.52
48892;BME280;50130;52.150;5.236;2023-03-20T01:44:27;101753.0;;;10.08;85.21
48892;BME280;50130;52.150;5.236;2023-03-20T01:47:54;101755.0;;;10.18;84.34
48892;BME280;50130;52.150;5.236;2023-03-20T01:50:35;101747.0;;;10.23;83.61
48892;BME280;50130;52.150;5.236;2023-03-20T01:52:11;101749.0;;;10.01;84.91
48892;BME280;50130;52.150;5.236;2023-03-20T01:53:51;101752.0;;;10.19;83.59
48892;BME280;50130;52.150;5.236;2023-03-20T01:55:28;101751.0;;;10.1;84.42
48892;BME280;50130;52.150;5.236;2023-03-20T01:57:08;101757.0;;;10.14;84.21
48892;BME280;50130;52.150;5.236;2023-03-20T02:00:31;101765.0;;;9.98;84.91
48892;BME280;50130;52.150;5.236;2023-03-20T02:02:11;101760.0;;;9.91;86.44
48892;BME280;50130;52.150;5.236;2023-03-20T02:03:52;101757.0;;;9.89;85.95
48892;BME280;50130;52.150;5.236;2023-03-20T02:05:29;101757.0;;;9.8;86.5
48892;BME280;50130;52.150;5.236;2023-03-20T02:08:48;101760.0;;;9.94;85.32
48892;BME280;50130;52.150;5.236;2023-03-20T02:10:25;101770.0;;;10.03;84.62
48892;BME280;50130;52.150;5.236;2023-03-20T02:12:02;101766.0;;;10.05;84.12
48892;BME280;50130;52.150;5.236;2023-03-20T02:13:39;101760.0;;;9.96;84.66
48892;BME280;50130;52.150;5.236;2023-03-20T02:16:53;101756.0;;;9.86;85.38
48892;BME280;50130;52.150;5.236;2023-03-20T02:18:29;101747.0;;;9.98;84.55
48892;BME280;50130;52.150;5.236;2023-03-20T02:20:15;101740.0;;;10.0;84.99
48892;BME280;50130;52.150;5.236;2023-03-20T02:22:38;101730.0;;;10.07;84.83
48892;BME280;50130;52.150;5.236;2023-03-20T02:25:36;101725.0;;;10.03;84.75
48892;BME280;50130;52.150;5.236;2023-03-20T02:26:27;101737.0;;;10.03;84.27
48892;BME280;50130;52.150;5.236;2023-03-20T02:31:00;101732.0;;;10.03;84.42
48892;BME280;50130;52.150;5.236;2023-03-20T02:33:22;101731.0;;;9.98;85.34
48892;BME280;50130;52.150;5.236;2023-03-20T02:35:53;101730.0;;;9.89;84.94
48892;BME280;50130;52.150;5.236;2023-03-20T02:40:16;101730.0;;;9.92;84.12
48892;BME280;50130;52.150;5.236;2023-03-20T02:42:00;101730.0;;;10.03;83.89
48892;BME280;50130;52.150;5.236;2023-03-20T02:43:44;101728.0;;;10.0;83.41
48892;BME280;50130;52.150;5.236;2023-03-20T02:45:31;101730.0;;;9.91;83.88
48892;BME280;50130;52.150;5.236;2023-03-20T02:47:13;101730.0;;;9.92;83.49
48892;BME280;50130;52.150;5.236;2023-03-20T02:50:43;101718.0;;;9.91;83.41
48892;BME280;50130;52.150;5.236;2023-03-20T02:52:29;101711.0;;;9.9;84.04
48892;BME280;50130;52.150;5.236;2023-03-20T02:54:13;101697.0;;;9.91;83.43
48892;BME280;50130;52.150;5.236;2023-03-20T02:56:01;101693.0;;;9.83;83.35
48892;BME280;50130;52.150;5.236;2023-03-20T02:57:50;101685.0;;;9.81;83.96
48892;BME280;50130;52.150;5.236;2023-03-20T03:01:20;101678.0;;;9.75;84.06
48892;BME280;50130;52.150;5.236;2023-03-20T03:03:05;101669.0;;;9.83;83.74
48892;BME280;50130;52.150;5.236;2023-03-20T03:04:47;101661.0;;;9.74;83.96
48892;BME280;50130;52.150;5.236;2023-03-20T03:06:29;101656.0;;;9.76;84.03
48892;BME280;50130;52.150;5.236;2023-03-20T03:08:07;101665.0;;;9.77;83.77
48892;BME280;50130;52.150;5.236;2023-03-20T03:11:29;101680.0;;;9.68;84.09
48892;BME280;50130;52.150;5.236;2023-03-20T03:13:12;101678.0;;;9.64;84.39
48892;BME280;50130;52.150;5.236;2023-03-20T03:14:52;101680.0;;;9.63;84.16
48892;BME280;50130;52.150;5.236;2023-03-20T03:16:33;101681.0;;;9.53;84.27
48892;BME280;50130;52.150;5.236;2023-03-20T03:19:58;101691.0;;;9.47;84.87
48892;BME280;50130;52.150;5.236;2023-03-20T03:21:38;101691.0;;;9.55;84.43
48892;BME280;50130;52.150;5.236;2023-03-20T03:23:20;101690.0;;;9.49;85.24
48892;BME280;50130;52.150;5.236;2023-03-20T03:25:03;101687.0;;;9.35;86.02
48892;BME280;50130;52.150;5.236;2023-03-20T03:28:22;101689.0;;;9.43;85.27
48892;BME280;50130;52.150;5.236;2023-03-20T03:30:05;101688.0;;;9.48;84.6
48892;BME280;50130;52.150;5.236;2023-03-20T03:31:46;101686.0;;;9.36;84.59
48892;BME280;50130;52.150;5.236;2023-03-20T03:33:26;101683.0;;;9.43;84.6
48892;BME280;50130;52.150;5.236;2023-03-20T03:36:53;101680.0;;;9.31;85.08
48892;BME280;50130;52.150;5.236;2023-03-20T03:38:41;101675.0;;;9.33;85.48
48892;BME280;50130;52.150;5.236;2023-03-20T03:40:29;101678.0;;;9.4;85.25
48892;BME280;50130;52.150;5.236;2023-03-20T03:42:16;101674.0;;;9.46;85.39
48892;BME280;50130;52.150;5.236;2023-03-20T03:44:06;101676.0;;;9.36;85.12
48892;BME280;50130;52.150;5.236;2023-03-20T03:45:49;101671.0;;;9.31;85.53
48892;BME280;50130;52.150;5.236;2023-03-20T03:49:15;101664.0;;;9.31;86.09
48892;BME280;50130;52.150;5.236;2023-03-20T03:50:56;101659.0;;;9.36;85.3
48892;BME280;50130;52.150;5.236;2023-03-20T03:52:36;101655.0;;;9.31;85.01
48892;BME280;50130;52.150;5.236;2023-03-20T03:54:17;101657.0;;;9.27;85.18
48892;BME280;50130;52.150;5.236;2023-03-20T03:57:40;101651.0;;;9.24;85.09
48892;BME280;50130;52.150;5.236;2023-03-20T03:59:22;101648.0;;;9.1;85.92
48892;BME280;50130;52.150;5.236;2023-03-20T04:01:04;101646.0;;;9.21;85.86
48892;BME280;50130;52.150;5.236;2023-03-20T04:02:44;101647.0;;;9.21;85.36
48892;BME280;50130;52.150;5.236;2023-03-20T04:06:05;101649.0;;;9.06;85.95
48892;BME280;50130;52.150;5.236;2023-03-20T04:07:44;101652.0;;;9.25;85.49
48892;BME280;50130;52.150;5.236;2023-03-20T04:09:20;101649.0;;;9.32;85.31
48892;BME280;50130;52.150;5.236;2023-03-20T04:10:57;101644.0;;;9.44;85.14
48892;BME280;50130;52.150;5.236;2023-03-20T04:14:13;101638.0;;;9.26;85.53
48892;BME280;50130;52.150;5.236;2023-03-20T04:15:50;101638.0;;;9.28;85.21
48892;BME280;50130;52.150;5.236;2023-03-20T04:17:27;101639.0;;;9.21;85.12
48892;BME280;50130;52.150;5.236;2023-03-20T04:20:40;101639.0;;;9.26;85.15
48892;BME280;50130;52.150;5.236;2023-03-20T04:22:17;101636.0;;;9.26;85.42
48892;BME280;50130;52.150;5.236;2023-03-20T04:23:54;101633.0;;;9.13;86.01
48892;BME280;50130;52.150;5.236;2023-03-20T04:25:31;101638.0;;;9.13;85.71
48892;BME280;50130;52.150;5.236;2023-03-20T04:28:43;101641.0;;;9.09;86.07
48892;BME280;50130;52.150;5.236;2023-03-20T04:30:19;101644.0;;;9.14;86.15
48892;BME280;50130;52.150;5.236;2023-03-20T04:31:56;101647.0;;;9.13;85.8
48892;BME280;50130;52.150;5.236;2023-03-20T04:35:09;101648.0;;;9.18;85.64
48892;BME280;50130;52.150;5.236;2023-03-20T04:36:46;101648.0;;;9.23;85.49
48892;BME280;50130;52.150;5.236;2023-03-20T04:38:24;101652.0;;;9.13;85.91
48892;BME280;50130;52.150;5.236;2023-03-20T04:41:38;101648.0;;;9.14;85.75
48892;BME280;50130;52.150;5.236;2023-03-20T04:43:15;101641.0;;;9.14;85.72
48892;BME280;50130;52.150;5.236;2023-03-20T04:44:51;101639.0;;;9.1;85.82
48892;BME280;50130;52.150;5.236;2023-03-20T04:46:29;101636.0;;;9.07;86.4
48892;BME280;50130;52.150;5.236;2023-03-20T04:49:42;101636.0;;;9.14;85.61
48892;BME280;50130;52.150;5.236;2023-03-20T04:51:18;101642.0;;;9.23;85.22
48892;BME280;50130;52.150;5.236;2023-03-20T04:52:55;101645.0;;;9.17;85.21
48892;BME280;50130;52.150;5.236;2023-03-20T04:56:09;101640.0;;;9.18;85.2
48892;BME280;50130;52.150;5.236;2023-03-20T04:57:46;101637.0;;;9.23;85.3
48892;BME280;50130;52.150;5.236;2023-03-20T04:59:22;101634.0;;;9.18;85.28
48892;BME280;50130;52.150;5.236;2023-03-20T05:00:58;101628.0;;;9.18;85.85
48892;BME280;50130;52.150;5.236;2023-03-20T05:04:10;101631.0;;;9.09;85.91
48892;BME280;50130;52.150;5.236;2023-03-20T05:05:46;101639.0;;;9.19;86.08
48892;BME280;50130;52.150;5.236;2023-03-20T05:07:22;101635.0;;;9.21;85.57
48892;BME280;50130;52.150;5.236;2023-03-20T05:10:36;101626.0;;;9.19;85.95
48892;BME280;50130;52.150;5.236;2023-03-20T05:12:12;101623.0;;;9.19;86.02
48892;BME280;50130;52.150;5.236;2023-03-20T05:13:48;101620.0;;;9.14;86.31
48892;BME280;50130;52.150;5.236;2023-03-20T05:17:01;101621.0;;;9.14;86.05
48892;BME280;50130;52.150;5.236;2023-03-20T05:18:37;101626.0;;;9.17;85.69
48892;BME280;50130;52.150;5.236;2023-03-20T05:20:14;101623.0;;;9.11;85.5
48892;BME280;50130;52.150;5.236;2023-03-20T05:23:27;101626.0;;;9.18;85.74
48892;BME280;50130;52.150;5.236;2023-03-20T05:25:04;101621.0;;;9.11;86.07
48892;BME280;50130;52.150;5.236;2023-03-20T05:26:41;101623.0;;;9.01;86.06
48892;BME280;50130;52.150;5.236;2023-03-20T05:28:17;101626.0;;;9.17;85.78
48892;BME280;50130;52.150;5.236;2023-03-20T05:31:30;101622.0;;;9.13;85.89
48892;BME280;50130;52.150;5.236;2023-03-20T05:33:06;101628.0;;;8.97;86.29
48892;BME280;50130;52.150;5.236;2023-03-20T05:34:42;101626.0;;;9.08;86.6
48892;BME280;50130;52.150;5.236;2023-03-20T05:37:54;101623.0;;;9.13;86.33
48892;BME280;50130;52.150;5.236;2023-03-20T05:39:30;101628.0;;;9.17;86.01
48892;BME280;50130;52.150;5.236;2023-03-20T05:41:06;101635.0;;;9.06;86.57
48892;BME280;50130;52.150;5.236;2023-03-20T05:44:20;101638.0;;;9.11;86.44
48892;BME280;50130;52.150;5.236;2023-03-20T05:45:56;101643.0;;;9.21;86.18
48892;BME280;50130;52.150;5.236;2023-03-20T05:47:32;101642.0;;;9.24;85.66
48892;BME280;50130;52.150;5.236;2023-03-20T05:49:08;101648.0;;;9.22;86.17
48892;BME280;50130;52.150;5.236;2023-03-20T05:52:21;101652.0;;;9.23;86.08
48892;BME280;50130;52.150;5.236;2023-03-20T05:53:57;101655.0;;;9.39;85.42
48892;BME280;50130;52.150;5.236;2023-03-20T05:55:33;101653.0;;;9.22;86.29
48892;BME280;50130;52.150;5.236;2023-03-20T05:58:45;101655.0;;;9.06;86.45
48892;BME280;50130;52.150;5.236;2023-03-20T06:00:22;101644.0;;;9.15;86.49
48892;BME280;50130;52.150;5.236;2023-03-20T06:07:14;101643.0;;;9.25;86.21
48892;BME280;50130;52.150;5.236;2023-03-20T06:08:57;101636.0;;;9.33;86.0
48892;BME280;50130;52.150;5.236;2023-03-20T06:10:32;101641.0;;;9.19;85.94
48892;BME280;50130;52.150;5.236;2023-03-20T06:12:08;101643.0;;;9.22;85.56
48892;BME280;50130;52.150;5.236;2023-03-20T06:15:20;101643.0;;;9.23;85.63
48892;BME280;50130;52.150;5.236;2023-03-20T06:16:57;101642.0;;;9.27;85.58
48892;BME280;50130;52.150;5.236;2023-03-20T06:18:33;101644.0;;;9.16;86.64
48892;BME280;50130;52.150;5.236;2023-03-20T06:21:46;101644.0;;;9.18;86.37
48892;BME280;50130;52.150;5.236;2023-03-20T06:23:23;101644.0;;;9.23;86.25
48892;BME280;50130;52.150;5.236;2023-03-20T06:24:59;101650.0;;;9.34;85.71
48892;BME280;50130;52.150;5.236;2023-03-20T06:28:12;101656.0;;;9.21;86.15
48892;BME280;50130;52.150;5.236;2023-03-20T06:29:48;101659.0;;;9.26;86.56
48892;BME280;50130;52.150;5.236;2023-03-20T06:31:24;101657.0;;;9.33;86.16
48892;BME280;50130;52.150;5.236;2023-03-20T06:33:00;101658.0;;;9.36;85.94
48892;BME280;50130;52.150;5.236;2023-03-20T06:36:13;101661.0;;;9.3;86.27
48892;BME280;50130;52.150;5.236;2023-03-20T06:37:49;101660.0;;;9.28;86.27
48892;BME280;50130;52.150;5.236;2023-03-20T06:39:26;101662.0;;;9.22;86.48
48892;BME280;50130;52.150;5.236;2023-03-20T06:42:38;101665.0;;;9.27;86.25
48892;BME280;50130;52.150;5.236;2023-03-20T06:44:14;101665.0;;;9.15;86.96
48892;BME280;50130;52.150;5.236;2023-03-20T06:45:51;101665.0;;;9.17;87.16
48892;BME280;50130;52.150;5.236;2023-03-20T06:49:03;101665.0;;;9.21;86.61
48892;BME280;50130;52.150;5.236;2023-03-20T06:50:39;101667.0;;;9.24;86.15
48892;BME280;50130;52.150;5.236;2023-03-20T06:52:18;101672.0;;;9.25;86.41
48892;BME280;50130;52.150;5.236;2023-03-20T06:55:31;101671.0;;;9.1;86.71
48892;BME280;50130;52.150;5.236;2023-03-20T06:57:07;101667.0;;;8.99;87.7
48892;BME280;50130;52.150;5.236;2023-03-20T06:58:43;101668.0;;;9.1;87.38
48892;BME280;50130;52.150;5.236;2023-03-20T07:00:20;101668.0;;;9.15;87.19
48892;BME280;50130;52.150;5.236;2023-03-20T07:03:33;101669.0;;;9.11;87.52
48892;BME280;50130;52.150;5.236;2023-03-20T07:05:09;101669.0;;;9.17;87.41
48892;BME280;50130;52.150;5.236;2023-03-20T07:06:45;101666.0;;;9.14;87.02
48892;BME280;50130;52.150;5.236;2023-03-20T07:09:58;101672.0;;;9.19;86.86
48892;BME280;50130;52.150;5.236;2023-03-20T07:11:34;101674.0;;;9.31;86.6
48892;BME280;50130;52.150;5.236;2023-03-20T07:13:11;101675.0;;;9.27;86.81
48892;BME280;50130;52.150;5.236;2023-03-20T07:16:24;101675.0;;;9.32;86.55
48892;BME280;50130;52.150;5.236;2023-03-20T07:18:00;101671.0;;;9.35;86.26
48892;BME280;50130;52.150;5.236;2023-03-20T07:19:37;101677.0;;;9.33;86.28
48892;BME280;50130;52.150;5.236;2023-03-20T07:21:17;101681.0;;;9.34;86.39
48892;BME280;50130;52.150;5.236;2023-03-20T07:24:31;101678.0;;;9.35;86.04
48892;BME280;50130;52.150;5.236;2023-03-20T07:26:07;101680.0;;;9.26;86.12
48892;BME280;50130;52.150;5.236;2023-03-20T07:27:43;101677.0;;;9.39;86.23
48892;BME280;50130;52.150;5.236;2023-03-20T07:30:56;101674.0;;;9.42;86.38
48892;BME280;50130;52.150;5.236;2023-03-20T07:32:32;101684.0;;;9.28;86.81
48892;BME280;50130;52.150;5.236;2023-03-20T07:34:09;101682.0;;;9.38;86.4
48892;BME280;50130;52.150;5.236;2023-03-20T07:35:51;101681.0;;;9.43;86.0
48892;BME280;50130;52.150;5.236;2023-03-20T07:39:04;101683.0;;;9.39;86.1
48892;BME280;50130;52.150;5.236;2023-03-20T07:40:40;101675.0;;;9.3;86.53
48892;BME280;50130;52.150;5.236;2023-03-20T07:42:16;101681.0;;;9.23;86.37
48892;BME280;50130;52.150;5.236;2023-03-20T07:45:28;101680.0;;;9.32;86.41
48892;BME280;50130;52.150;5.236;2023-03-20T07:47:05;101678.0;;;9.3;86.24
48892;BME280;50130;52.150;5.236;2023-03-20T07:48:41;101677.0;;;9.39;86.22
48892;BME280;50130;52.150;5.236;2023-03-20T07:51:54;101680.0;;;9.26;86.09
48892;BME280;50130;52.150;5.236;2023-03-20T07:53:30;101675.0;;;9.33;86.28
48892;BME280;50130;52.150;5.236;2023-03-20T07:55:07;101674.0;;;9.3;86.67
48892;BME280;50130;52.150;5.236;2023-03-20T07:56:43;101677.0;;;9.33;86.09
48892;BME280;50130;52.150;5.236;2023-03-20T07:59:55;101680.0;;;9.39;85.93
48892;BME280;50130;52.150;5.236;2023-03-20T08:01:32;101681.0;;;9.51;85.26
48892;BME280;50130;52.150;5.236;2023-03-20T08:03:08;101685.0;;;9.49;85.98
48892;BME280;50130;52.150;5.236;2023-03-20T08:06:21;101678.0;;;9.55;85.35
48892;BME280;50130;52.150;5.236;2023-03-20T08:07:57;101671.0;;;9.67;85.28
48892;BME280;50130;52.150;5.236;2023-03-20T08:09:35;101677.0;;;9.73;84.6
48892;BME280;50130;52.150;5.236;2023-03-20T08:12:48;101680.0;;;9.72;84.16
48892;BME280;50130;52.150;5.236;2023-03-20T08:14:25;101678.0;;;9.72;84.21
48892;BME280;50130;52.150;5.236;2023-03-20T08:16:01;101673.0;;;9.61;82.91
48892;BME280;50130;52.150;5.236;2023-03-20T08:17:37;101686.0;;;9.68;83.35
48892;BME280;50130;52.150;5.236;2023-03-20T08:20:53;101682.0;;;9.77;82.48
48892;BME280;50130;52.150;5.236;2023-03-20T08:22:29;101680.0;;;9.71;82.46
48892;BME280;50130;52.150;5.236;2023-03-20T08:24:06;101682.0;;;9.73;82.67
48892;BME280;50130;52.150;5.236;2023-03-20T08:27:22;101677.0;;;9.8;82.3
48892;BME280;50130;52.150;5.236;2023-03-20T08:28:58;101675.0;;;9.92;82.04
48892;BME280;50130;52.150;5.236;2023-03-20T08:30:34;101677.0;;;9.83;81.64
48892;BME280;50130;52.150;5.236;2023-03-20T08:33:46;101676.0;;;9.77;82.06
48892;BME280;50130;52.150;5.236;2023-03-20T08:35:23;101680.0;;;9.85;82.02
48892;BME280;50130;52.150;5.236;2023-03-20T08:37:02;101687.0;;;9.98;81.55
48892;BME280;50130;52.150;5.236;2023-03-20T08:38:39;101680.0;;;9.77;81.61
48892;BME280;50130;52.150;5.236;2023-03-20T08:41:51;101684.0;;;9.89;82.01
48892;BME280;50130;52.150;5.236;2023-03-20T08:43:27;101684.0;;;9.97;82.82
48892;BME280;50130;52.150;5.236;2023-03-20T08:45:04;101688.0;;;10.11;82.5
48892;BME280;50130;52.150;5.236;2023-03-20T08:48:17;101682.0;;;10.14;82.31
48892;BME280;50130;52.150;5.236;2023-03-20T08:49:53;101687.0;;;10.17;82.52
48892;BME280;50130;52.150;5.236;2023-03-20T08:51:28;101681.0;;;10.03;82.96
48892;BME280;50130;52.150;5.236;2023-03-20T08:54:41;101683.0;;;10.09;83.99
48892;BME280;50130;52.150;5.236;2023-03-20T08:56:18;101690.0;;;9.98;82.97
48892;BME280;50130;52.150;5.236;2023-03-20T08:57:54;101678.0;;;9.86;83.42
48892;BME280;50130;52.150;5.236;2023-03-20T08:59:30;101688.0;;;10.01;84.21
48892;BME280;50130;52.150;5.236;2023-03-20T09:02:45;101684.0;;;10.0;84.58
48892;BME280;50130;52.150;5.236;2023-03-20T09:04:21;101681.0;;;10.06;84.9
48892;BME280;50130;52.150;5.236;2023-03-20T09:05:57;101687.0;;;10.06;86.31
48892;BME280;50130;52.150;5.236;2023-03-20T09:09:09;101693.0;;;10.07;87.19
48892;BME280;50130;52.150;5.236;2023-03-20T09:10:46;101691.0;;;10.07;87.19
48892;BME280;50130;52.150;5.236;2023-03-20T09:12:23;101692.0;;;10.03;87.21
48892;BME280;50130;52.150;5.236;2023-03-20T09:15:36;101694.0;;;10.02;86.83
48892;BME280;50130;52.150;5.236;2023-03-20T09:17:12;101687.0;;;10.06;88.11
48892;BME280;50130;52.150;5.236;2023-03-20T09:18:48;101694.0;;;9.81;86.84
48892;BME280;50130;52.150;5.236;2023-03-20T09:20:24;101695.0;;;9.89;88.37
48892;BME280;50130;52.150;5.236;2023-03-20T09:23:36;101692.0;;;9.86;89.63
48892;BME280;50130;52.150;5.236;2023-03-20T09:25:13;101690.0;;;9.97;88.85
48892;BME280;50130;52.150;5.236;2023-03-20T09:26:50;101698.0;;;9.9;88.4
48892;BME280;50130;52.150;5.236;2023-03-20T09:30:03;101694.0;;;9.99;88.91
48892;BME280;50130;52.150;5.236;2023-03-20T09:31:39;101695.0;;;10.15;89.28
48892;BME280;50130;52.150;5.236;2023-03-20T09:33:15;101689.0;;;10.13;91.31
48892;BME280;50130;52.150;5.236;2023-03-20T09:36:28;101693.0;;;10.17;90.81
48892;BME280;50130;52.150;5.236;2023-03-20T09:38:05;101685.0;;;10.13;90.47
48892;BME280;50130;52.150;5.236;2023-03-20T09:39:41;101691.0;;;10.19;90.25
48892;BME280;50130;52.150;5.236;2023-03-20T09:41:20;101683.0;;;10.18;90.37
48892;BME280;50130;52.150;5.236;2023-03-20T09:44:52;101684.0;;;10.14;90.95
48892;BME280;50130;52.150;5.236;2023-03-20T09:46:44;101692.0;;;10.07;90.93
48892;BME280;50130;52.150;5.236;2023-03-20T09:48:30;101687.0;;;10.23;91.76
48892;BME280;50130;52.150;5.236;2023-03-20T09:50:17;101686.0;;;10.26;91.95
48892;BME280;50130;52.150;5.236;2023-03-20T09:52:15;101682.0;;;10.24;92.06
48892;BME280;50130;52.150;5.236;2023-03-20T09:53:55;101684.0;;;10.26;92.04
48892;BME280;50130;52.150;5.236;2023-03-20T09:57:19;101683.0;;;10.23;91.88
48892;BME280;50130;52.150;5.236;2023-03-20T09:58:58;101680.0;;;10.24;92.22
48892;BME280;50130;52.150;5.236;2023-03-20T10:00:42;101682.0;;;10.14;91.32
48892;BME280;50130;52.150;5.236;2023-03-20T10:02:25;101680.0;;;10.22;91.41
48892;BME280;50130;52.150;5.236;2023-03-20T10:05:51;101688.0;;;10.25;91.96
48892;BME280;50130;52.150;5.236;2023-03-20T10:07:30;101685.0;;;10.19;90.17
48892;BME280;50130;52.150;5.236;2023-03-20T10:09:13;101686.0;;;10.35;89.96
48892;BME280;50130;52.150;5.236;2023-03-20T10:10:59;101682.0;;;10.28;90.09
48892;BME280;50130;52.150;5.236;2023-03-20T10:12:47;101685.0;;;10.39;90.41
48892;BME280;50130;52.150;5.236;2023-03-20T10:16:28;101685.0;;;10.25;89.7
48892;BME280;50130;52.150;5.236;2023-03-20T10:18:16;101686.0;;;10.31;91.32
48892;BME280;50130;52.150;5.236;2023-03-20T10:20:07;101676.0;;;10.38;90.55
48892;BME280;50130;52.150;5.236;2023-03-20T10:21:46;101678.0;;;10.45;91.17
48892;BME280;50130;52.150;5.236;2023-03-20T10:23:27;101678.0;;;10.39;90.08
48892;BME280;50130;52.150;5.236;2023-03-20T10:27:03;101676.0;;;10.4;90.26
48892;BME280;50130;52.150;5.236;2023-03-20T10:28:49;101672.0;;;10.35;88.98
48892;BME280;50130;52.150;5.236;2023-03-20T10:30:41;101675.0;;;10.43;89.67
48892;BME280;50130;52.150;5.236;2023-03-20T10:32:26;101669.0;;;10.39;90.13
48892;BME280;50130;52.150;5.236;2023-03-20T10:34:19;101669.0;;;10.38;90.46
48892;BME280;50130;52.150;5.236;2023-03-20T10:36:25;101672.0;;;10.53;89.72
48892;BME280;50130;52.150;5.236;2023-03-20T10:38:19;101673.0;;;10.56;90.57
48892;BME280;50130;52.150;5.236;2023-03-20T10:40:13;101674.0;;;10.67;91.34
48892;BME280;50130;52.150;5.236;2023-03-20T10:42:01;101672.0;;;10.76;89.65
48892;BME280;50130;52.150;5.236;2023-03-20T10:45:28;101676.0;;;10.7;89.07
48892;BME280;50130;52.150;5.236;2023-03-20T10:47:11;101669.0;;;10.47;90.21
48892;BME280;50130;52.150;5.236;2023-03-20T10:48:56;101669.0;;;10.61;90.37
48892;BME280;50130;52.150;5.236;2023-03-20T10:50:40;101667.0;;;10.7;90.63
48892;BME280;50130;52.150;5.236;2023-03-20T10:54:02;101667.0;;;10.59;89.64
48892;BME280;50130;52.150;5.236;2023-03-20T10:55:42;101664.0;;;10.51;90.56
48892;BME280;50130;52.150;5.236;2023-03-20T10:57:22;101663.0;;;10.46;90.86
48892;BME280;50130;52.150;5.236;2023-03-20T10:59:04;101662.0;;;10.56;90.63
48892;BME280;50130;52.150;5.236;2023-03-20T11:02:20;101661.0;;;10.49;90.48
48892;BME280;50130;52.150;5.236;2023-03-20T11:03:59;101659.0;;;10.4;90.68
48892;BME280;50130;52.150;5.236;2023-03-20T11:05:36;101658.0;;;10.4;92.19
48892;BME280;50130;52.150;5.236;2023-03-20T11:07:20;101662.0;;;10.41;91.16
48892;BME280;50130;52.150;5.236;2023-03-20T11:10:57;101660.0;;;10.38;91.69
48892;BME280;50130;52.150;5.236;2023-03-20T11:12:36;101660.0;;;10.26;90.81
48892;BME280;50130;52.150;5.236;2023-03-20T11:14:18;101662.0;;;10.36;91.44
48892;BME280;50130;52.150;5.236;2023-03-20T11:15:54;101653.0;;;10.32;91.16
48892;BME280;50130;52.150;5.236;2023-03-20T11:17:32;101652.0;;;10.35;91.7
48892;BME280;50130;52.150;5.236;2023-03-20T11:20:50;101650.0;;;10.27;90.85